createdAt,value
2019-03-24T00:03:43.653Z,100994.55
2019-03-24T00:09:02.321Z,100993.03
2019-03-24T00:14:20.878Z,100998.81
2019-03-24T00:19:39.513Z,101002.78
2019-03-24T00:24:58.075Z,100993.70
2019-03-24T00:30:16.725Z,100983.91
2019-03-24T00:35:35.341Z,100974.81
2019-03-24T00:40:53.974Z,100975.11
2019-03-24T00:46:12.886Z,100973.08
2019-03-24T00:51:31.533Z,100970.44
2019-03-24T00:56:50.105Z,100965.30
2019-03-24T01:02:08.747Z,100956.03
2019-03-24T01:07:27.369Z,100958.98
2019-03-24T01:12:45.985Z,100958.59
2019-03-24T01:18:04.599Z,100957.41
2019-03-24T01:23:23.160Z,100957.35
2019-03-24T01:28:41.721Z,100956.23
2019-03-24T01:34:00.344Z,100956.14
2019-03-24T01:39:19.061Z,100954.30
2019-03-24T01:44:37.672Z,100942.22
2019-03-24T01:49:56.315Z,100940.83
2019-03-24T01:55:14.950Z,100940.20
2019-03-24T02:00:35.431Z,100931.77
2019-03-24T02:05:54.002Z,100939.13
2019-03-24T02:11:12.641Z,100938.47
2019-03-24T02:16:31.280Z,100929.58
2019-03-24T02:21:49.840Z,100927.70
2019-03-24T02:27:08.488Z,100926.09
2019-03-24T02:32:27.131Z,100921.44
2019-03-24T02:37:45.764Z,100912.86
2019-03-24T02:43:04.641Z,100906.50
2019-03-24T02:48:23.216Z,100897.72
2019-03-24T02:53:41.839Z,100903.82
2019-03-24T02:59:00.452Z,100894.10
2019-03-24T03:04:19.126Z,100893.72
2019-03-24T03:09:37.754Z,100887.78
2019-03-24T03:14:56.401Z,100889.55
2019-03-24T03:20:15.131Z,100885.94
2019-03-24T03:25:33.677Z,100892.00
2019-03-24T03:30:52.307Z,100904.39
2019-03-24T03:36:10.928Z,100900.40
2019-03-24T03:41:29.668Z,100886.64
2019-03-24T03:46:52.864Z,100876.63
2019-03-24T03:52:08.663Z,100871.39
2019-03-24T03:57:27.316Z,100861.98
2019-03-24T04:02:45.970Z,100857.12
2019-03-24T04:08:04.991Z,100860.10
2019-03-24T04:13:23.623Z,100862.07
2019-03-24T04:18:42.206Z,100866.46
2019-03-24T04:24:00.747Z,100858.07
2019-03-24T04:29:19.331Z,100856.36
2019-03-24T04:34:38.246Z,100849.94
2019-03-24T04:39:56.794Z,100841.27
2019-03-24T04:45:15.445Z,100841.38
2019-03-24T04:50:34.010Z,100835.09
2019-03-24T04:55:52.622Z,100841.29
2019-03-24T05:01:11.146Z,100835.97
2019-03-24T05:06:30.690Z,100834.39
2019-03-24T05:11:49.250Z,100835.79
2019-03-24T05:17:07.855Z,100844.47
2019-03-24T05:22:26.427Z,100834.72
2019-03-24T05:27:44.975Z,100834.67
2019-03-24T05:33:03.610Z,100834.66
2019-03-24T05:38:22.173Z,100833.07
2019-03-24T05:43:40.798Z,100834.55
2019-03-24T05:49:01.273Z,100838.16
2019-03-24T05:54:19.990Z,100841.62
2019-03-24T05:59:38.791Z,100834.98
2019-03-24T06:04:57.358Z,100844.20
2019-03-24T06:10:15.977Z,100845.94
2019-03-24T06:15:34.592Z,100844.63
2019-03-24T06:20:53.342Z,100842.28
2019-03-24T06:26:11.910Z,100846.78
2019-03-24T06:31:30.452Z,100842.64
2019-03-24T06:36:49.019Z,100839.33
2019-03-24T06:42:07.572Z,100833.05
2019-03-24T06:47:26.130Z,100834.85
2019-03-24T06:52:44.948Z,100828.88
2019-03-24T06:58:03.514Z,100832.22
2019-03-24T07:03:22.458Z,100813.95
2019-03-24T07:08:41.036Z,100804.83
2019-03-24T07:13:59.666Z,100801.78
2019-03-24T07:19:18.167Z,100799.76
2019-03-24T07:24:36.959Z,100794.25
2019-03-24T07:29:55.450Z,100802.94
2019-03-24T07:35:14.160Z,100799.83
2019-03-24T07:40:32.738Z,100800.50
2019-03-24T07:45:51.322Z,100806.02
2019-03-24T07:51:10.211Z,100802.75
2019-03-24T07:56:28.835Z,100785.23
2019-03-24T08:01:47.410Z,100780.89
2019-03-24T08:07:06.086Z,100777.10
2019-03-24T08:12:24.653Z,100774.19
2019-03-24T08:17:43.196Z,100784.34
2019-03-24T08:23:01.672Z,100786.28
2019-03-24T08:28:20.212Z,100785.00
2019-03-24T08:33:38.823Z,100784.97
2019-03-24T08:38:57.475Z,100785.09
2019-03-24T08:44:16.108Z,100792.80
2019-03-24T08:49:34.665Z,100791.44
2019-03-24T08:54:53.346Z,100802.37
2019-03-24T09:00:11.947Z,100807.00
2019-03-24T09:05:30.792Z,100804.83
2019-03-24T09:10:49.406Z,100795.39
2019-03-24T09:16:08.094Z,100793.98
2019-03-24T09:21:26.732Z,100797.33
2019-03-24T09:26:45.336Z,100795.72
2019-03-24T09:32:04.114Z,100794.38
2019-03-24T09:37:22.751Z,100799.84
2019-03-24T09:42:41.230Z,100798.31
2019-03-24T09:48:00.455Z,100792.63
2019-03-24T09:53:19.155Z,100789.02
2019-03-24T09:58:37.760Z,100797.21
2019-03-24T10:03:56.446Z,100796.58
2019-03-24T10:09:15.104Z,100793.53
2019-03-24T10:14:33.815Z,100784.36
2019-03-24T10:19:52.290Z,100781.69
2019-03-24T10:25:10.904Z,100789.23
2019-03-24T10:30:29.454Z,100785.70
2019-03-24T10:35:48.010Z,100795.55
2019-03-24T10:41:06.618Z,100793.73
2019-03-24T10:46:25.134Z,100776.08
2019-03-24T10:51:43.695Z,100768.37
2019-03-24T10:57:02.246Z,100763.32
2019-03-24T11:02:20.885Z,100733.84
2019-03-24T11:07:39.437Z,100733.84
2019-03-24T11:12:58.412Z,100729.36
2019-03-24T11:18:17.299Z,100734.82
2019-03-24T11:23:35.858Z,100734.98
2019-03-24T11:28:54.479Z,100734.27
2019-03-24T11:34:12.963Z,100731.55
2019-03-24T11:39:31.515Z,100726.45
2019-03-24T11:44:50.059Z,100722.82
2019-03-24T11:50:09.927Z,100722.40
2019-03-24T11:55:28.569Z,100722.39
2019-03-24T12:00:47.187Z,100721.48
2019-03-24T12:06:13.970Z,100714.41
2019-03-24T12:11:26.074Z,100707.50
2019-03-24T12:16:44.696Z,100702.58
2019-03-24T12:22:03.325Z,100694.69
2019-03-24T12:27:21.807Z,100693.97
2019-03-24T12:32:40.737Z,100685.22
2019-03-24T12:37:59.358Z,100690.76
2019-03-24T12:43:19.763Z,100677.59
2019-03-24T12:48:38.120Z,100676.12
2019-03-24T12:53:56.683Z,100682.67
2019-03-24T12:59:15.164Z,100682.14
2019-03-24T13:04:34.106Z,100674.45
2019-03-24T13:09:52.767Z,100676.98
2019-03-24T13:15:11.746Z,100664.93
2019-03-24T13:20:38.183Z,100665.86
2019-03-24T13:25:51.197Z,100659.38
2019-03-24T13:31:09.907Z,100659.17
2019-03-24T13:36:28.402Z,100646.75
2019-03-24T13:41:47.016Z,100651.00
2019-03-24T13:47:05.709Z,100653.03
2019-03-24T13:52:25.050Z,100642.75
2019-03-24T13:57:43.737Z,100639.73
2019-03-24T14:03:02.473Z,100652.27
2019-03-24T14:08:21.160Z,100646.02
2019-03-24T14:13:39.767Z,100636.77
2019-03-24T14:18:58.486Z,100625.64
2019-03-24T14:24:20.161Z,100639.28
2019-03-24T14:29:38.772Z,100631.24
2019-03-24T14:34:57.380Z,100631.55
2019-03-24T15:03:33.691Z,100602.55
2019-03-24T15:55:46.685Z,100571.70
2019-03-24T16:01:05.319Z,100567.83
2019-03-24T16:06:23.957Z,100560.52
2019-03-24T16:11:42.499Z,100552.58
2019-03-24T16:17:01.421Z,100547.83
2019-03-24T16:22:20.136Z,100549.86
2019-03-24T16:27:38.779Z,100542.37
2019-03-24T16:32:57.369Z,100537.86
2019-03-24T16:38:15.916Z,100535.84
2019-03-24T16:43:34.527Z,100533.84
2019-03-24T16:48:53.133Z,100533.84
2019-03-24T16:54:11.968Z,100534.55
2019-03-24T16:59:30.796Z,100540.42
2019-03-24T17:04:49.471Z,100535.70
2019-03-24T17:10:08.403Z,100532.20
2019-03-24T17:15:27.021Z,100523.10
2019-03-24T17:20:45.511Z,100527.51
2019-03-24T17:26:04.187Z,100521.08
2019-03-24T17:31:23.894Z,100521.88
2019-03-24T17:36:42.379Z,100521.82
2019-03-24T17:42:01.273Z,100519.73
2019-03-24T17:47:19.907Z,100519.83
2019-03-24T17:52:38.734Z,100514.22
2019-03-24T17:57:57.296Z,100515.30
2019-03-24T18:03:16.043Z,100523.80
2019-03-24T18:08:34.677Z,100508.97
2019-03-24T18:13:53.233Z,100522.39
2019-03-24T18:19:11.785Z,100525.24
2019-03-24T18:24:30.277Z,100530.03
2019-03-24T18:29:48.920Z,100519.96
2019-03-24T18:35:08.741Z,100525.61
2019-03-24T18:40:27.451Z,100524.61
2019-03-24T18:45:47.870Z,100536.14
2019-03-24T18:51:06.490Z,100534.02
2019-03-24T18:56:25.144Z,100534.68
2019-03-24T19:01:43.759Z,100534.67
2019-03-24T19:07:03.854Z,100527.55
2019-03-24T19:12:22.471Z,100526.19
2019-03-24T19:17:41.279Z,100531.43
2019-03-24T19:22:59.929Z,100516.11
2019-03-24T19:28:18.576Z,100514.92
2019-03-24T19:33:37.302Z,100524.36
2019-03-24T19:38:55.942Z,100531.37
2019-03-24T19:44:15.455Z,100522.77
2019-03-24T19:49:34.000Z,100523.84
2019-03-24T19:54:52.577Z,100523.44
2019-03-24T20:00:12.179Z,100519.97
2019-03-24T20:05:30.837Z,100515.70
2019-03-24T20:10:54.372Z,100507.70
2019-03-24T20:16:13.256Z,100507.70
2019-03-24T20:21:33.543Z,100513.23
2019-03-24T20:26:52.283Z,100513.13
2019-03-24T20:32:12.685Z,100520.58
2019-03-24T20:37:31.418Z,100511.82
2019-03-24T20:42:50.247Z,100512.80
2019-03-24T20:48:08.885Z,100521.03
2019-03-24T20:53:27.514Z,100520.04
2019-03-24T20:58:46.140Z,100520.27
2019-03-24T21:04:04.812Z,100511.50
2019-03-24T21:09:23.851Z,100508.42
2019-03-24T21:14:42.534Z,100510.39
2019-03-24T21:20:01.266Z,100502.71
2019-03-24T21:25:19.889Z,100505.28
2019-03-24T21:30:40.009Z,100492.64
2019-03-24T21:35:58.537Z,100496.03
2019-03-24T21:41:18.778Z,100494.95
2019-03-24T21:46:37.330Z,100483.14
2019-03-24T21:51:55.945Z,100468.95
2019-03-24T21:57:14.560Z,100461.84
2019-03-24T22:02:33.119Z,100463.47
2019-03-24T22:07:51.746Z,100461.63
2019-03-24T22:13:10.371Z,100448.47
2019-03-24T22:18:28.908Z,100444.48
2019-03-24T22:23:52.171Z,100445.52
2019-03-24T22:29:07.670Z,100447.90
2019-03-24T22:34:26.236Z,100439.67
2019-03-24T22:39:44.833Z,100428.05
2019-03-24T22:45:03.554Z,100417.98
2019-03-24T22:50:22.119Z,100406.25
2019-03-24T22:55:40.747Z,100394.30
2019-03-24T23:00:59.437Z,100391.28
2019-03-24T23:06:18.056Z,100383.31
2019-03-24T23:11:36.600Z,100374.91
2019-03-24T23:16:55.157Z,100376.64
2019-03-24T23:22:13.648Z,100364.91
2019-03-24T23:27:32.262Z,100357.26
2019-03-24T23:32:50.904Z,100351.43
2019-03-24T23:38:09.447Z,100343.73
2019-03-24T23:43:28.364Z,100331.64
2019-03-24T23:48:46.844Z,100315.70
2019-03-24T23:54:05.466Z,100311.98
2019-03-24T23:59:24.093Z,100303.19
